sensor_id;sensor_type;location;lat;lon;timestamp;temperature;humidity
2621;DHT22;1320;48.128;11.592;2022-12-16T00:00:23;3.60;99.90
2621;DHT22;1320;48.128;11.592;2022-12-16T00:02:50;3.60;99.90
2621;DHT22;1320;48.128;11.592;2022-12-16T00:05:16;3.60;99.90
2621;DHT22;1320;48.128;11.592;2022-12-16T00:07:44;3.60;99.90
2621;DHT22;1320;48.128;11.592;2022-12-16T00:10:10;3.60;99.90
2621;DHT22;1320;48.128;11.592;2022-12-16T00:12:36;3.60;99.90
2621;DHT22;1320;48.128;11.592;2022-12-16T00:15:02;3.50;99.90
2621;DHT22;1320;48.128;11.592;2022-12-16T00:17:28;3.60;99.90
2621;DHT22;1320;48.128;11.592;2022-12-16T00:19:54;3.60;99.90
2621;DHT22;1320;48.128;11.592;2022-12-16T00:22:19;3.60;99.90
2621;DHT22;1320;48.128;11.592;2022-12-16T00:24:45;3.60;99.90
2621;DHT22;1320;48.128;11.592;2022-12-16T00:27:11;3.60;99.90
2621;DHT22;1320;48.128;11.592;2022-12-16T00:29:36;3.50;99.90
2621;DHT22;1320;48.128;11.592;2022-12-16T00:32:02;3.60;99.90
2621;DHT22;1320;48.128;11.592;2022-12-16T00:34:28;3.50;99.90
2621;DHT22;1320;48.128;11.592;2022-12-16T00:36:53;3.60;99.90
2621;DHT22;1320;48.128;11.592;2022-12-16T00:39:19;3.50;99.90
2621;DHT22;1320;48.128;11.592;2022-12-16T00:41:45;3.50;99.90
2621;DHT22;1320;48.128;11.592;2022-12-16T00:44:12;3.50;99.90
2621;DHT22;1320;48.128;11.592;2022-12-16T00:46:37;3.50;99.90
2621;DHT22;1320;48.128;11.592;2022-12-16T00:49:04;3.50;99.90
2621;DHT22;1320;48.128;11.592;2022-12-16T00:51:30;3.50;99.90
2621;DHT22;1320;48.128;11.592;2022-12-16T00:53:56;3.50;99.90
2621;DHT22;1320;48.128;11.592;2022-12-16T00:56:22;3.50;99.90
2621;DHT22;1320;48.128;11.592;2022-12-16T00:58:47;3.50;99.90
2621;DHT22;1320;48.128;11.592;2022-12-16T01:01:13;3.50;99.90
2621;DHT22;1320;48.128;11.592;2022-12-16T01:03:39;3.50;99.90
2621;DHT22;1320;48.128;11.592;2022-12-16T01:06:14;3.50;99.90
2621;DHT22;1320;48.128;11.592;2022-12-16T01:08:40;3.50;99.90
2621;DHT22;1320;48.128;11.592;2022-12-16T01:11:14;3.50;99.90
2621;DHT22;1320;48.128;11.592;2022-12-16T01:13:40;3.50;99.90
2621;DHT22;1320;48.128;11.592;2022-12-16T01:16:06;3.50;99.90
2621;DHT22;1320;48.128;11.592;2022-12-16T01:18:31;3.50;99.90
2621;DHT22;1320;48.128;11.592;2022-12-16T01:21:06;3.50;99.90
2621;DHT22;1320;48.128;11.592;2022-12-16T01:23:33;3.50;99.90
2621;DHT22;1320;48.128;11.592;2022-12-16T01:26:00;3.40;99.90
2621;DHT22;1320;48.128;11.592;2022-12-16T01:28:29;3.40;99.90
2621;DHT22;1320;48.128;11.592;2022-12-16T01:30:57;3.40;99.90
2621;DHT22;1320;48.128;11.592;2022-12-16T01:33:27;3.40;99.90
2621;DHT22;1320;48.128;11.592;2022-12-16T01:35:58;3.40;99.90
2621;DHT22;1320;48.128;11.592;2022-12-16T01:38:24;3.40;99.90
2621;DHT22;1320;48.128;11.592;2022-12-16T01:40:49;3.40;99.90
2621;DHT22;1320;48.128;11.592;2022-12-16T01:43:16;3.40;99.90
2621;DHT22;1320;48.128;11.592;2022-12-16T01:45:43;3.30;99.90
2621;DHT22;1320;48.128;11.592;2022-12-16T01:51:07;3.40;99.90
2621;DHT22;1320;48.128;11.592;2022-12-16T01:53:35;3.40;99.90
2621;DHT22;1320;48.128;11.592;2022-12-16T01:56:03;3.40;99.90
2621;DHT22;1320;48.128;11.592;2022-12-16T01:58:32;3.40;99.90
2621;DHT22;1320;48.128;11.592;2022-12-16T02:00:58;3.50;99.90
2621;DHT22;1320;48.128;11.592;2022-12-16T02:03:25;3.40;99.90
2621;DHT22;1320;48.128;11.592;2022-12-16T02:05:51;3.50;99.90
2621;DHT22;1320;48.128;11.592;2022-12-16T02:08:18;3.50;99.90
2621;DHT22;1320;48.128;11.592;2022-12-16T02:21:54;3.50;99.90
2621;DHT22;1320;48.128;11.592;2022-12-16T02:27:32;3.50;99.90
2621;DHT22;1320;48.128;11.592;2022-12-16T02:30:33;3.40;99.90
2621;DHT22;1320;48.128;11.592;2022-12-16T02:35:55;3.50;99.90
2621;DHT22;1320;48.128;11.592;2022-12-16T02:39:06;3.40;99.90
2621;DHT22;1320;48.128;11.592;2022-12-16T02:41:49;3.40;99.90
2621;DHT22;1320;48.128;11.592;2022-12-16T02:44:18;3.40;99.90
2621;DHT22;1320;48.128;11.592;2022-12-16T02:46:53;3.30;99.90
2621;DHT22;1320;48.128;11.592;2022-12-16T02:51:46;3.40;99.90
2621;DHT22;1320;48.128;11.592;2022-12-16T02:54:12;3.40;99.90
2621;DHT22;1320;48.128;11.592;2022-12-16T02:57:10;3.40;99.90
2621;DHT22;1320;48.128;11.592;2022-12-16T02:59:47;3.40;99.90
2621;DHT22;1320;48.128;11.592;2022-12-16T03:02:25;3.40;99.90
2621;DHT22;1320;48.128;11.592;2022-12-16T03:05:05;3.40;99.90
2621;DHT22;1320;48.128;11.592;2022-12-16T03:07:33;3.40;99.90
2621;DHT22;1320;48.128;11.592;2022-12-16T03:10:04;3.40;99.90
2621;DHT22;1320;48.128;11.592;2022-12-16T03:12:31;3.40;99.90
2621;DHT22;1320;48.128;11.592;2022-12-16T03:14:58;3.40;99.90
2621;DHT22;1320;48.128;11.592;2022-12-16T03:17:26;3.40;99.90
2621;DHT22;1320;48.128;11.592;2022-12-16T03:20:04;3.40;99.90
2621;DHT22;1320;48.128;11.592;2022-12-16T03:22:33;3.40;99.90
2621;DHT22;1320;48.128;11.592;2022-12-16T03:25:03;3.40;99.90
2621;DHT22;1320;48.128;11.592;2022-12-16T03:28:05;3.40;99.90
2621;DHT22;1320;48.128;11.592;2022-12-16T03:30:41;3.40;99.90
2621;DHT22;1320;48.128;11.592;2022-12-16T03:33:17;3.40;99.90
2621;DHT22;1320;48.128;11.592;2022-12-16T03:35:49;3.30;99.90
2621;DHT22;1320;48.128;11.592;2022-12-16T03:38:16;3.30;99.90
2621;DHT22;1320;48.128;11.592;2022-12-16T03:40:43;3.20;99.90
2621;DHT22;1320;48.128;11.592;2022-12-16T03:43:10;3.20;99.90
2621;DHT22;1320;48.128;11.592;2022-12-16T03:45:40;3.20;99.90
2621;DHT22;1320;48.128;11.592;2022-12-16T03:48:08;3.20;99.90
2621;DHT22;1320;48.128;11.592;2022-12-16T03:50:35;3.10;99.90
2621;DHT22;1320;48.128;11.592;2022-12-16T03:53:02;3.00;99.90
2621;DHT22;1320;48.128;11.592;2022-12-16T03:55:28;3.00;99.90
2621;DHT22;1320;48.128;11.592;2022-12-16T03:57:54;2.90;99.90
2621;DHT22;1320;48.128;11.592;2022-12-16T04:00:21;2.90;99.90
2621;DHT22;1320;48.128;11.592;2022-12-16T04:02:48;2.90;99.90
2621;DHT22;1320;48.128;11.592;2022-12-16T04:05:14;2.80;99.90
2621;DHT22;1320;48.128;11.592;2022-12-16T04:07:39;2.70;99.90
2621;DHT22;1320;48.128;11.592;2022-12-16T04:10:06;2.70;99.90
2621;DHT22;1320;48.128;11.592;2022-12-16T04:12:32;2.60;99.90
2621;DHT22;1320;48.128;11.592;2022-12-16T04:15:16;2.60;99.90
2621;DHT22;1320;48.128;11.592;2022-12-16T04:18:01;2.60;99.90
2621;DHT22;1320;48.128;11.592;2022-12-16T04:20:48;2.60;99.90
2621;DHT22;1320;48.128;11.592;2022-12-16T04:23:34;2.50;99.90
2621;DHT22;1320;48.128;11.592;2022-12-16T04:26:20;2.40;99.90
2621;DHT22;1320;48.128;11.592;2022-12-16T04:28:46;2.40;99.90
2621;DHT22;1320;48.128;11.592;2022-12-16T04:31:12;2.40;99.90
2621;DHT22;1320;48.128;11.592;2022-12-16T04:33:39;2.40;99.90
2621;DHT22;1320;48.128;11.592;2022-12-16T04:36:23;2.40;99.90
2621;DHT22;1320;48.128;11.592;2022-12-16T04:39:08;2.40;99.90
2621;DHT22;1320;48.128;11.592;2022-12-16T04:41:53;2.40;99.90
2621;DHT22;1320;48.128;11.592;2022-12-16T04:44:37;2.40;99.90
2621;DHT22;1320;48.128;11.592;2022-12-16T04:47:22;2.40;99.90
2621;DHT22;1320;48.128;11.592;2022-12-16T04:50:06;2.40;99.90
2621;DHT22;1320;48.128;11.592;2022-12-16T04:52:51;2.40;99.90
2621;DHT22;1320;48.128;11.592;2022-12-16T04:55:36;2.40;99.90
2621;DHT22;1320;48.128;11.592;2022-12-16T04:58:20;2.40;99.90
2621;DHT22;1320;48.128;11.592;2022-12-16T05:01:05;2.40;99.90
2621;DHT22;1320;48.128;11.592;2022-12-16T05:03:49;2.40;99.90
2621;DHT22;1320;48.128;11.592;2022-12-16T05:06:33;2.40;99.90
2621;DHT22;1320;48.128;11.592;2022-12-16T05:09:18;2.40;99.90
2621;DHT22;1320;48.128;11.592;2022-12-16T05:12:02;2.30;99.90
2621;DHT22;1320;48.128;11.592;2022-12-16T05:14:47;2.30;99.90
2621;DHT22;1320;48.128;11.592;2022-12-16T05:17:31;2.30;99.90
2621;DHT22;1320;48.128;11.592;2022-12-16T05:20:15;2.30;99.90
2621;DHT22;1320;48.128;11.592;2022-12-16T05:22:59;2.20;99.90
2621;DHT22;1320;48.128;11.592;2022-12-16T05:25:43;2.20;99.90
2621;DHT22;1320;48.128;11.592;2022-12-16T05:28:28;2.20;99.90
2621;DHT22;1320;48.128;11.592;2022-12-16T05:31:12;2.20;99.90
2621;DHT22;1320;48.128;11.592;2022-12-16T05:33:56;2.10;99.90
2621;DHT22;1320;48.128;11.592;2022-12-16T05:36:40;2.20;99.90
2621;DHT22;1320;48.128;11.592;2022-12-16T05:39:25;2.20;99.90
2621;DHT22;1320;48.128;11.592;2022-12-16T05:42:09;2.20;99.90
2621;DHT22;1320;48.128;11.592;2022-12-16T05:44:53;2.10;99.90
2621;DHT22;1320;48.128;11.592;2022-12-16T05:47:38;2.20;99.90
2621;DHT22;1320;48.128;11.592;2022-12-16T05:50:22;2.20;99.90
2621;DHT22;1320;48.128;11.592;2022-12-16T05:53:07;2.20;99.90
2621;DHT22;1320;48.128;11.592;2022-12-16T05:55:51;2.20;99.90
2621;DHT22;1320;48.128;11.592;2022-12-16T05:58:36;2.20;99.90
2621;DHT22;1320;48.128;11.592;2022-12-16T06:01:20;2.20;99.90
2621;DHT22;1320;48.128;11.592;2022-12-16T06:04:04;2.20;99.90
2621;DHT22;1320;48.128;11.592;2022-12-16T06:06:48;2.20;99.90
2621;DHT22;1320;48.128;11.592;2022-12-16T06:09:33;2.20;99.90
2621;DHT22;1320;48.128;11.592;2022-12-16T06:12:17;2.20;99.90
2621;DHT22;1320;48.128;11.592;2022-12-16T06:15:01;2.20;99.90
2621;DHT22;1320;48.128;11.592;2022-12-16T06:17:49;2.20;99.90
2621;DHT22;1320;48.128;11.592;2022-12-16T06:20:34;2.20;99.90
2621;DHT22;1320;48.128;11.592;2022-12-16T06:23:19;2.20;99.90
2621;DHT22;1320;48.128;11.592;2022-12-16T06:26:04;2.10;99.90
2621;DHT22;1320;48.128;11.592;2022-12-16T06:28:48;2.10;99.90
2621;DHT22;1320;48.128;11.592;2022-12-16T06:31:32;2.20;99.90
2621;DHT22;1320;48.128;11.592;2022-12-16T06:34:17;2.10;99.90
2621;DHT22;1320;48.128;11.592;2022-12-16T06:37:00;2.10;99.90
2621;DHT22;1320;48.128;11.592;2022-12-16T06:39:45;2.10;99.90
2621;DHT22;1320;48.128;11.592;2022-12-16T06:42:29;2.10;99.90
2621;DHT22;1320;48.128;11.592;2022-12-16T06:45:13;2.10;99.90
2621;DHT22;1320;48.128;11.592;2022-12-16T06:47:57;2.10;99.90
2621;DHT22;1320;48.128;11.592;2022-12-16T06:50:41;2.10;99.90
2621;DHT22;1320;48.128;11.592;2022-12-16T06:53:25;2.10;99.90
2621;DHT22;1320;48.128;11.592;2022-12-16T06:56:10;2.10;99.90
2621;DHT22;1320;48.128;11.592;2022-12-16T06:58:57;2.10;99.90
2621;DHT22;1320;48.128;11.592;2022-12-16T07:01:41;2.10;99.90
2621;DHT22;1320;48.128;11.592;2022-12-16T07:04:26;2.10;99.90
2621;DHT22;1320;48.128;11.592;2022-12-16T07:07:10;2.00;99.90
2621;DHT22;1320;48.128;11.592;2022-12-16T07:09:54;2.00;99.90
2621;DHT22;1320;48.128;11.592;2022-12-16T07:12:38;1.90;99.90
2621;DHT22;1320;48.128;11.592;2022-12-16T07:15:22;1.80;99.90
2621;DHT22;1320;48.128;11.592;2022-12-16T07:18:07;1.70;99.90
2621;DHT22;1320;48.128;11.592;2022-12-16T07:20:51;1.60;99.90
2621;DHT22;1320;48.128;11.592;2022-12-16T07:23:35;1.50;99.90
2621;DHT22;1320;48.128;11.592;2022-12-16T07:26:19;1.50;99.90
2621;DHT22;1320;48.128;11.592;2022-12-16T07:29:03;1.50;99.90
2621;DHT22;1320;48.128;11.592;2022-12-16T07:31:47;1.60;99.90
2621;DHT22;1320;48.128;11.592;2022-12-16T07:34:32;1.60;99.90
2621;DHT22;1320;48.128;11.592;2022-12-16T07:37:16;1.60;99.90
2621;DHT22;1320;48.128;11.592;2022-12-16T07:40:00;1.70;99.90
2621;DHT22;1320;48.128;11.592;2022-12-16T07:42:47;1.70;99.90
2621;DHT22;1320;48.128;11.592;2022-12-16T07:45:31;1.70;99.90
2621;DHT22;1320;48.128;11.592;2022-12-16T07:48:16;1.70;99.90
2621;DHT22;1320;48.128;11.592;2022-12-16T07:51:00;1.70;99.90
2621;DHT22;1320;48.128;11.592;2022-12-16T07:53:44;1.70;99.90
2621;DHT22;1320;48.128;11.592;2022-12-16T07:56:28;1.70;99.90
2621;DHT22;1320;48.128;11.592;2022-12-16T07:59:12;1.80;99.90
2621;DHT22;1320;48.128;11.592;2022-12-16T08:01:56;1.80;99.90
2621;DHT22;1320;48.128;11.592;2022-12-16T08:04:41;1.90;99.90
2621;DHT22;1320;48.128;11.592;2022-12-16T08:07:25;1.80;99.90
2621;DHT22;1320;48.128;11.592;2022-12-16T08:10:09;1.80;99.90
2621;DHT22;1320;48.128;11.592;2022-12-16T08:13:03;1.80;99.90
2621;DHT22;1320;48.128;11.592;2022-12-16T08:15:48;1.70;99.90
2621;DHT22;1320;48.128;11.592;2022-12-16T08:18:33;1.70;99.90
2621;DHT22;1320;48.128;11.592;2022-12-16T08:21:17;1.70;99.90
2621;DHT22;1320;48.128;11.592;2022-12-16T08:24:01;1.70;99.90
2621;DHT22;1320;48.128;11.592;2022-12-16T08:26:56;1.80;99.90
2621;DHT22;1320;48.128;11.592;2022-12-16T08:29:45;1.90;99.90
2621;DHT22;1320;48.128;11.592;2022-12-16T08:32:33;1.90;99.90
2621;DHT22;1320;48.128;11.592;2022-12-16T08:35:17;1.80;99.90
2621;DHT22;1320;48.128;11.592;2022-12-16T08:38:01;1.80;99.90
2621;DHT22;1320;48.128;11.592;2022-12-16T08:40:46;1.80;99.90
2621;DHT22;1320;48.128;11.592;2022-12-16T08:43:34;1.80;99.90
2621;DHT22;1320;48.128;11.592;2022-12-16T08:46:19;1.90;99.90
2621;DHT22;1320;48.128;11.592;2022-12-16T08:49:04;1.90;99.90
2621;DHT22;1320;48.128;11.592;2022-12-16T08:51:49;1.90;99.90
2621;DHT22;1320;48.128;11.592;2022-12-16T08:54:34;1.90;99.90
2621;DHT22;1320;48.128;11.592;2022-12-16T08:57:18;1.90;99.90
2621;DHT22;1320;48.128;11.592;2022-12-16T09:00:04;1.90;99.90
2621;DHT22;1320;48.128;11.592;2022-12-16T09:02:53;1.90;99.90
2621;DHT22;1320;48.128;11.592;2022-12-16T09:05:38;2.00;99.90
2621;DHT22;1320;48.128;11.592;2022-12-16T09:08:22;2.00;99.90
2621;DHT22;1320;48.128;11.592;2022-12-16T09:11:06;2.10;99.90
2621;DHT22;1320;48.128;11.592;2022-12-16T09:13:50;2.20;99.90
2621;DHT22;1320;48.128;11.592;2022-12-16T09:16:35;2.20;99.90
2621;DHT22;1320;48.128;11.592;2022-12-16T09:19:19;2.20;99.90
2621;DHT22;1320;48.128;11.592;2022-12-16T09:22:03;2.20;99.90
2621;DHT22;1320;48.128;11.592;2022-12-16T09:24:47;2.20;99.90
2621;DHT22;1320;48.128;11.592;2022-12-16T09:27:31;2.20;99.90
2621;DHT22;1320;48.128;11.592;2022-12-16T09:30:16;2.20;99.90
2621;DHT22;1320;48.128;11.592;2022-12-16T09:33:01;2.00;99.90
2621;DHT22;1320;48.128;11.592;2022-12-16T09:35:45;1.90;99.90
2621;DHT22;1320;48.128;11.592;2022-12-16T09:38:29;1.80;99.90
2621;DHT22;1320;48.128;11.592;2022-12-16T09:45:05;1.80;99.90
2621;DHT22;1320;48.128;11.592;2022-12-16T09:50:53;1.90;99.90
2621;DHT22;1320;48.128;11.592;2022-12-16T09:53:41;1.90;99.90
2621;DHT22;1320;48.128;11.592;2022-12-16T09:56:31;1.90;99.90
2621;DHT22;1320;48.128;11.592;2022-12-16T09:59:23;2.00;99.90
2621;DHT22;1320;48.128;11.592;2022-12-16T10:02:12;2.10;99.90
2621;DHT22;1320;48.128;11.592;2022-12-16T10:04:57;2.10;99.90
2621;DHT22;1320;48.128;11.592;2022-12-16T10:07:53;2.10;99.90
2621;DHT22;1320;48.128;11.592;2022-12-16T10:11:08;2.10;99.90
2621;DHT22;1320;48.128;11.592;2022-12-16T10:14:07;2.10;99.90
2621;DHT22;1320;48.128;11.592;2022-12-16T10:17:08;2.00;99.90
2621;DHT22;1320;48.128;11.592;2022-12-16T10:20:09;2.00;99.90
2621;DHT22;1320;48.128;11.592;2022-12-16T10:23:28;1.90;99.90
2621;DHT22;1320;48.128;11.592;2022-12-16T10:26:17;2.00;99.90
2621;DHT22;1320;48.128;11.592;2022-12-16T10:29:18;2.00;99.90
2621;DHT22;1320;48.128;11.592;2022-12-16T10:35:00;2.00;99.90
2621;DHT22;1320;48.128;11.592;2022-12-16T10:37:46;2.00;99.90
2621;DHT22;1320;48.128;11.592;2022-12-16T10:40:33;2.00;99.90
2621;DHT22;1320;48.128;11.592;2022-12-16T10:43:36;2.00;99.90
2621;DHT22;1320;48.128;11.592;2022-12-16T10:46:24;1.90;99.90
2621;DHT22;1320;48.128;11.592;2022-12-16T10:49:13;1.90;99.90
2621;DHT22;1320;48.128;11.592;2022-12-16T10:51:58;1.90;99.90
2621;DHT22;1320;48.128;11.592;2022-12-16T10:55:11;1.90;99.90
2621;DHT22;1320;48.128;11.592;2022-12-16T11:01:32;2.00;99.90
2621;DHT22;1320;48.128;11.592;2022-12-16T11:04:34;2.00;99.90
2621;DHT22;1320;48.128;11.592;2022-12-16T11:10:38;2.00;99.90
2621;DHT22;1320;48.128;11.592;2022-12-16T11:18:59;1.90;99.90
2621;DHT22;1320;48.128;11.592;2022-12-16T11:21:44;1.80;99.90
2621;DHT22;1320;48.128;11.592;2022-12-16T11:24:29;1.80;99.90
2621;DHT22;1320;48.128;11.592;2022-12-16T11:27:23;1.80;99.90
2621;DHT22;1320;48.128;11.592;2022-12-16T11:30:14;1.60;99.90
2621;DHT22;1320;48.128;11.592;2022-12-16T11:33:05;1.40;99.90
2621;DHT22;1320;48.128;11.592;2022-12-16T11:35:57;1.30;99.90
2621;DHT22;1320;48.128;11.592;2022-12-16T11:38:46;1.20;99.90
2621;DHT22;1320;48.128;11.592;2022-12-16T11:41:38;1.10;99.90
2621;DHT22;1320;48.128;11.592;2022-12-16T11:44:50;1.10;99.90
2621;DHT22;1320;48.128;11.592;2022-12-16T11:50:27;1.10;99.90
2621;DHT22;1320;48.128;11.592;2022-12-16T11:56:30;1.10;99.90
2621;DHT22;1320;48.128;11.592;2022-12-16T12:03:04;1.20;99.90
2621;DHT22;1320;48.128;11.592;2022-12-16T12:05:42;1.30;99.90
2621;DHT22;1320;48.128;11.592;2022-12-16T12:23:09;1.40;99.90
2621;DHT22;1320;48.128;11.592;2022-12-16T12:29:23;1.30;99.90
2621;DHT22;1320;48.128;11.592;2022-12-16T12:42:01;1.50;99.90
2621;DHT22;1320;48.128;11.592;2022-12-16T12:48:36;1.60;99.90
2621;DHT22;1320;48.128;11.592;2022-12-16T12:54:47;1.70;99.90
2621;DHT22;1320;48.128;11.592;2022-12-16T12:57:36;1.80;99.90
2621;DHT22;1320;48.128;11.592;2022-12-16T13:00:23;1.70;99.90
2621;DHT22;1320;48.128;11.592;2022-12-16T13:03:26;1.70;99.90
2621;DHT22;1320;48.128;11.592;2022-12-16T13:06:14;1.50;99.90
2621;DHT22;1320;48.128;11.592;2022-12-16T13:08:59;1.50;99.90
2621;DHT22;1320;48.128;11.592;2022-12-16T13:20:53;1.60;99.90
2621;DHT22;1320;48.128;11.592;2022-12-16T13:23:41;1.70;99.90
2621;DHT22;1320;48.128;11.592;2022-12-16T13:26:28;1.70;99.90
2621;DHT22;1320;48.128;11.592;2022-12-16T13:29:42;1.70;99.90
2621;DHT22;1320;48.128;11.592;2022-12-16T13:33:20;1.70;99.90
2621;DHT22;1320;48.128;11.592;2022-12-16T13:36:05;1.60;99.90
2621;DHT22;1320;48.128;11.592;2022-12-16T13:38:53;1.50;99.90
2621;DHT22;1320;48.128;11.592;2022-12-16T13:41:58;1.50;99.90
2621;DHT22;1320;48.128;11.592;2022-12-16T13:47:35;1.30;99.90
2621;DHT22;1320;48.128;11.592;2022-12-16T13:50:45;1.30;99.90
2621;DHT22;1320;48.128;11.592;2022-12-16T13:53:42;1.30;99.90
2621;DHT22;1320;48.128;11.592;2022-12-16T13:56:41;1.30;99.90
2621;DHT22;1320;48.128;11.592;2022-12-16T13:59:29;1.30;99.90
2621;DHT22;1320;48.128;11.592;2022-12-16T14:02:20;1.20;99.90
2621;DHT22;1320;48.128;11.592;2022-12-16T14:05:21;1.10;99.90
2621;DHT22;1320;48.128;11.592;2022-12-16T14:08:12;1.10;99.90
2621;DHT22;1320;48.128;11.592;2022-12-16T14:11:00;1.10;99.90
2621;DHT22;1320;48.128;11.592;2022-12-16T14:17:00;1.10;99.90
2621;DHT22;1320;48.128;11.592;2022-12-16T14:23:08;1.10;99.90
2621;DHT22;1320;48.128;11.592;2022-12-16T14:25:57;1.10;99.90
2621;DHT22;1320;48.128;11.592;2022-12-16T14:28:46;1.00;99.90
2621;DHT22;1320;48.128;11.592;2022-12-16T14:31:39;1.10;99.90
2621;DHT22;1320;48.128;11.592;2022-12-16T14:34:30;1.10;99.90
2621;DHT22;1320;48.128;11.592;2022-12-16T14:37:36;1.10;99.90
2621;DHT22;1320;48.128;11.592;2022-12-16T14:40:31;1.10;99.90
2621;DHT22;1320;48.128;11.592;2022-12-16T14:43:21;1.00;99.90
2621;DHT22;1320;48.128;11.592;2022-12-16T14:46:27;1.00;99.90
2621;DHT22;1320;48.128;11.592;2022-12-16T14:49:28;1.10;99.90
2621;DHT22;1320;48.128;11.592;2022-12-16T14:52:21;1.10;99.90
2621;DHT22;1320;48.128;11.592;2022-12-16T14:58:13;1.20;99.90
2621;DHT22;1320;48.128;11.592;2022-12-16T15:01:02;1.20;99.90
2621;DHT22;1320;48.128;11.592;2022-12-16T15:03:48;1.20;99.90
2621;DHT22;1320;48.128;11.592;2022-12-16T15:06:45;1.20;99.90
2621;DHT22;1320;48.128;11.592;2022-12-16T15:09:42;1.30;99.90
2621;DHT22;1320;48.128;11.592;2022-12-16T15:12:31;1.30;99.90
2621;DHT22;1320;48.128;11.592;2022-12-16T15:15:46;1.40;99.90
2621;DHT22;1320;48.128;11.592;2022-12-16T15:18:38;1.40;99.90
2621;DHT22;1320;48.128;11.592;2022-12-16T15:21:24;1.40;99.90
2621;DHT22;1320;48.128;11.592;2022-12-16T15:24:16;1.30;99.90
2621;DHT22;1320;48.128;11.592;2022-12-16T15:27:21;1.10;99.90
2621;DHT22;1320;48.128;11.592;2022-12-16T15:30:35;1.10;99.90
2621;DHT22;1320;48.128;11.592;2022-12-16T15:33:35;0.90;99.90
2621;DHT22;1320;48.128;11.592;2022-12-16T15:36:35;0.80;99.90
2621;DHT22;1320;48.128;11.592;2022-12-16T15:39:30;0.80;99.90
2621;DHT22;1320;48.128;11.592;2022-12-16T15:45:01;0.70;99.90
2621;DHT22;1320;48.128;11.592;2022-12-16T15:47:48;0.70;99.90
2621;DHT22;1320;48.128;11.592;2022-12-16T15:50:33;0.70;99.90
2621;DHT22;1320;48.128;11.592;2022-12-16T15:53:36;0.70;99.90
2621;DHT22;1320;48.128;11.592;2022-12-16T15:56:25;0.70;99.90
2621;DHT22;1320;48.128;11.592;2022-12-16T15:59:27;0.60;99.90
2621;DHT22;1320;48.128;11.592;2022-12-16T16:02:26;0.70;99.90
2621;DHT22;1320;48.128;11.592;2022-12-16T16:05:17;0.70;99.90
2621;DHT22;1320;48.128;11.592;2022-12-16T16:08:02;0.80;99.90
2621;DHT22;1320;48.128;11.592;2022-12-16T16:10:47;0.80;99.90
2621;DHT22;1320;48.128;11.592;2022-12-16T16:13:31;0.80;99.90
2621;DHT22;1320;48.128;11.592;2022-12-16T16:16:15;0.80;99.90
2621;DHT22;1320;48.128;11.592;2022-12-16T16:19:00;0.70;99.90
2621;DHT22;1320;48.128;11.592;2022-12-16T16:21:44;0.70;99.90
2621;DHT22;1320;48.128;11.592;2022-12-16T16:24:29;0.70;99.90
2621;DHT22;1320;48.128;11.592;2022-12-16T16:27:14;0.70;99.90
2621;DHT22;1320;48.128;11.592;2022-12-16T16:29:59;0.70;99.90
2621;DHT22;1320;48.128;11.592;2022-12-16T16:32:44;0.70;99.90
2621;DHT22;1320;48.128;11.592;2022-12-16T16:35:30;0.70;99.90
2621;DHT22;1320;48.128;11.592;2022-12-16T16:38:15;0.70;99.90
2621;DHT22;1320;48.128;11.592;2022-12-16T16:40:59;0.70;99.90
2621;DHT22;1320;48.128;11.592;2022-12-16T16:43:43;0.70;99.90
2621;DHT22;1320;48.128;11.592;2022-12-16T16:49:30;0.60;99.90
2621;DHT22;1320;48.128;11.592;2022-12-16T16:52:18;0.50;99.90
2621;DHT22;1320;48.128;11.592;2022-12-16T16:55:03;0.50;99.90
2621;DHT22;1320;48.128;11.592;2022-12-16T16:57:52;0.50;99.90
2621;DHT22;1320;48.128;11.592;2022-12-16T17:00:36;0.60;99.90
2621;DHT22;1320;48.128;11.592;2022-12-16T17:03:37;0.60;99.90
2621;DHT22;1320;48.128;11.592;2022-12-16T17:06:21;0.70;99.90
2621;DHT22;1320;48.128;11.592;2022-12-16T17:09:06;0.70;99.90
2621;DHT22;1320;48.128;11.592;2022-12-16T17:11:50;0.80;99.90
2621;DHT22;1320;48.128;11.592;2022-12-16T17:14:34;0.80;99.90
2621;DHT22;1320;48.128;11.592;2022-12-16T17:17:19;0.80;99.90
2621;DHT22;1320;48.128;11.592;2022-12-16T17:20:03;0.70;99.90
2621;DHT22;1320;48.128;11.592;2022-12-16T17:22:47;0.70;99.90
2621;DHT22;1320;48.128;11.592;2022-12-16T17:25:32;0.70;99.90
2621;DHT22;1320;48.128;11.592;2022-12-16T17:28:16;0.60;99.90
2621;DHT22;1320;48.128;11.592;2022-12-16T17:31:00;0.70;99.90
2621;DHT22;1320;48.128;11.592;2022-12-16T17:33:44;0.70;99.90
2621;DHT22;1320;48.128;11.592;2022-12-16T17:36:29;0.80;99.90
2621;DHT22;1320;48.128;11.592;2022-12-16T17:39:13;0.80;99.90
2621;DHT22;1320;48.128;11.592;2022-12-16T17:41:57;0.80;99.90
2621;DHT22;1320;48.128;11.592;2022-12-16T17:44:41;0.80;99.90
2621;DHT22;1320;48.128;11.592;2022-12-16T17:47:26;0.80;99.90
2621;DHT22;1320;48.128;11.592;2022-12-16T17:50:10;0.70;99.90
2621;DHT22;1320;48.128;11.592;2022-12-16T17:52:55;0.60;99.90
2621;DHT22;1320;48.128;11.592;2022-12-16T17:55:41;0.70;99.90
2621;DHT22;1320;48.128;11.592;2022-12-16T17:58:31;0.70;99.90
2621;DHT22;1320;48.128;11.592;2022-12-16T18:01:15;0.70;99.90
2621;DHT22;1320;48.128;11.592;2022-12-16T18:03:59;0.60;99.90
2621;DHT22;1320;48.128;11.592;2022-12-16T18:06:47;0.60;99.90
2621;DHT22;1320;48.128;11.592;2022-12-16T18:09:31;0.60;99.90
2621;DHT22;1320;48.128;11.592;2022-12-16T18:12:15;0.60;99.90
2621;DHT22;1320;48.128;11.592;2022-12-16T18:14:59;0.60;99.90
2621;DHT22;1320;48.128;11.592;2022-12-16T18:17:46;0.60;99.90
2621;DHT22;1320;48.128;11.592;2022-12-16T18:20:31;0.50;99.90
2621;DHT22;1320;48.128;11.592;2022-12-16T18:23:15;0.50;99.90
2621;DHT22;1320;48.128;11.592;2022-12-16T18:26:01;0.40;99.90
2621;DHT22;1320;48.128;11.592;2022-12-16T18:28:46;0.50;99.90
2621;DHT22;1320;48.128;11.592;2022-12-16T18:31:30;0.50;99.90
2621;DHT22;1320;48.128;11.592;2022-12-16T18:34:14;0.60;99.90
2621;DHT22;1320;48.128;11.592;2022-12-16T18:36:59;0.60;99.90
2621;DHT22;1320;48.128;11.592;2022-12-16T18:39:43;0.60;99.90
2621;DHT22;1320;48.128;11.592;2022-12-16T18:42:27;0.70;99.90
2621;DHT22;1320;48.128;11.592;2022-12-16T18:45:12;0.70;99.90
2621;DHT22;1320;48.128;11.592;2022-12-16T18:47:56;0.70;99.90
2621;DHT22;1320;48.128;11.592;2022-12-16T18:50:40;0.70;99.90
2621;DHT22;1320;48.128;11.592;2022-12-16T18:53:24;0.80;99.90
2621;DHT22;1320;48.128;11.592;2022-12-16T18:56:09;0.70;99.90
2621;DHT22;1320;48.128;11.592;2022-12-16T18:58:53;0.70;99.90
2621;DHT22;1320;48.128;11.592;2022-12-16T19:01:38;0.80;99.90
2621;DHT22;1320;48.128;11.592;2022-12-16T19:04:23;0.70;99.90
2621;DHT22;1320;48.128;11.592;2022-12-16T19:07:12;0.70;99.90
2621;DHT22;1320;48.128;11.592;2022-12-16T19:09:56;0.70;99.90
2621;DHT22;1320;48.128;11.592;2022-12-16T19:12:40;0.60;99.90
2621;DHT22;1320;48.128;11.592;2022-12-16T19:15:25;0.50;99.90
2621;DHT22;1320;48.128;11.592;2022-12-16T19:18:10;0.40;99.90
2621;DHT22;1320;48.128;11.592;2022-12-16T19:20:55;0.40;99.90
2621;DHT22;1320;48.128;11.592;2022-12-16T19:23:40;0.50;99.90
2621;DHT22;1320;48.128;11.592;2022-12-16T19:26:25;0.60;99.90
2621;DHT22;1320;48.128;11.592;2022-12-16T19:29:09;0.70;99.90
2621;DHT22;1320;48.128;11.592;2022-12-16T19:31:53;0.70;99.90
2621;DHT22;1320;48.128;11.592;2022-12-16T19:34:37;0.70;99.90
2621;DHT22;1320;48.128;11.592;2022-12-16T19:37:21;0.80;99.90
2621;DHT22;1320;48.128;11.592;2022-12-16T19:40:06;0.80;99.90
2621;DHT22;1320;48.128;11.592;2022-12-16T19:42:51;0.70;99.90